Map

Track Data

SID SEASON NUMBER BASIN SUBBASIN NAME ISO_TIME NATURE LAT LON WMO_WIND WMO_PRES WMO_AGENCY TRACK_TYPE DIST2LAND LANDFALL IFLAG USA_AGENCY USA_ATCF_ID USA_LAT USA_LON USA_RECORD USA_STATUS USA_WIND USA_PRES USA_SSHS USA_R34_NE USA_R34_SE USA_R34_SW USA_R34_NW USA_R50_NE USA_R50_SE USA_R50_SW USA_R50_NW USA_R64_NE USA_R64_SE USA_R64_SW USA_R64_NW USA_POCI USA_ROCI USA_RMW USA_EYE TOKYO_LAT TOKYO_LON TOKYO_GRADE TOKYO_WIND TOKYO_PRES TOKYO_R50_DIR TOKYO_R50_LONG TOKYO_R50_SHORT TOKYO_R30_DIR TOKYO_R30_LONG TOKYO_R30_SHORT TOKYO_LAND CMA_LAT CMA_LON CMA_CAT CMA_WIND CMA_PRES HKO_LAT HKO_LON HKO_CAT HKO_WIND HKO_PRES NEWDELHI_LAT NEWDELHI_LON NEWDELHI_GRADE NEWDELHI_WIND NEWDELHI_PRES NEWDELHI_CI NEWDELHI_DP NEWDELHI_POCI REUNION_LAT REUNION_LON REUNION_TYPE REUNION_WIND REUNION_PRES REUNION_TNUM REUNION_CI REUNION_RMW REUNION_R34_NE REUNION_R34_SE REUNION_R34_SW REUNION_R34_NW REUNION_R50_NE REUNION_R50_SE REUNION_R50_SW REUNION_R50_NW REUNION_R64_NE REUNION_R64_SE REUNION_R64_SW REUNION_R64_NW BOM_LAT BOM_LON BOM_TYPE BOM_WIND BOM_PRES BOM_TNUM BOM_CI BOM_RMW BOM_R34_NE BOM_R34_SE BOM_R34_SW BOM_R34_NW BOM_R50_NE BOM_R50_SE BOM_R50_SW BOM_R50_NW BOM_R64_NE BOM_R64_SE BOM_R64_SW BOM_R64_NW BOM_ROCI BOM_POCI BOM_EYE BOM_POS_METHOD BOM_PRES_METHOD NADI_LAT NADI_LON NADI_CAT NADI_WIND NADI_PRES WELLINGTON_LAT WELLINGTON_LON WELLINGTON_WIND WELLINGTON_PRES DS824_LAT DS824_LON DS824_STAGE DS824_WIND DS824_PRES TD9636_LAT TD9636_LON TD9636_STAGE TD9636_WIND TD9636_PRES TD9635_LAT TD9635_LON TD9635_WIND TD9635_PRES TD9635_ROCI NEUMANN_LAT NEUMANN_LON NEUMANN_CLASS NEUMANN_WIND NEUMANN_PRES MLC_LAT MLC_LON MLC_CLASS MLC_WIND MLC_PRES USA_GUST BOM_GUST BOM_GUST_PER REUNION_GUST REUNION_GUST_PER USA_SEAHGT USA_SEARAD_NE USA_SEARAD_SE USA_SEARAD_SW USA_SEARAD_NW STORM_SPEED STORM_DIR
1895285N12315 1895 41 NA NA NOT_NAMED 1895-10-12 00:00:00 TS 12.0000 -44.8000 35 hurdat_atl main 1120 1099 O_____________ hurdat_atl AL051895 12.0000 -44.8000 TS 35 0 6 270
1895285N12315 1895 41 NA NA NOT_NAMED 1895-10-12 03:00:00 TS 12.0000 -45.1200 main 1099 1073 P_____________ AL051895 12.0000 -45.1200 TS 35 0 7 270
1895285N12315 1895 41 NA NA NOT_NAMED 1895-10-12 06:00:00 TS 12.0000 -45.5000 35 hurdat_atl main 1073 1047 O_____________ hurdat_atl AL051895 12.0000 -45.5000 TS 35 0 8 270
1895285N12315 1895 41 NA NA NOT_NAMED 1895-10-12 09:00:00 TS 12.0000 -45.9775 main 1041 1011 P_____________ AL051895 12.0000 -45.9775 TS 37 0 10 270
1895285N12315 1895 41 NA NA NOT_NAMED 1895-10-12 12:00:00 TS 12.0000 -46.5000 40 hurdat_atl main 1011 979 O_____________ hurdat_atl AL051895 12.0000 -46.5000 TS 40 0 10 270
1895285N12315 1895 41 NA NA NOT_NAMED 1895-10-12 15:00:00 TS 11.9999 -47.0000 main 979 945 P_____________ AL051895 11.9999 -47.0000 TS 40 0 10 270
1895285N12315 1895 41 NA NA NOT_NAMED 1895-10-12 18:00:00 TS 12.0000 -47.5000 40 hurdat_atl main 945 914 O_____________ hurdat_atl AL051895 12.0000 -47.5000 TS 40 0 10 270
1895285N12315 1895 41 NA NA NOT_NAMED 1895-10-12 21:00:00 TS 11.9999 -48.0075 main 914 885 P_____________ AL051895 11.9999 -48.0075 TS 42 0 10 270
1895285N12315 1895 41 NA NA NOT_NAMED 1895-10-13 00:00:00 TS 12.0000 -48.5000 45 hurdat_atl main 885 863 O_____________ hurdat_atl AL051895 12.0000 -48.5000 TS 45 0 9 270
1895285N12315 1895 41 NA NA NOT_NAMED 1895-10-13 03:00:00 TS 11.9999 -48.9500 main 863 838 P_____________ AL051895 11.9999 -48.9500 TS 45 0 9 270
1895285N12315 1895 41 NA NA NOT_NAMED 1895-10-13 06:00:00 TS 12.0000 -49.4000 45 hurdat_atl main 838 815 O_____________ hurdat_atl AL051895 12.0000 -49.4000 TS 45 0 9 270
1895285N12315 1895 41 NA NA NOT_NAMED 1895-10-13 09:00:00 TS 11.9924 -49.8925 main 815 795 P_____________ AL051895 11.9924 -49.8925 TS 47 0 10 270
1895285N12315 1895 41 NA NA NOT_NAMED 1895-10-13 12:00:00 TS 12.0000 -50.4000 50 hurdat_atl main 795 773 O_____________ hurdat_atl AL051895 12.0000 -50.4000 TS 50 0 10 273
1895285N12315 1895 41 NA NA NOT_NAMED 1895-10-13 15:00:00 TS 12.0424 -50.9000 main 773 759 P_____________ AL051895 12.0424 -50.9000 TS 50 0 10 276
1895285N12315 1895 41 NA NA NOT_NAMED 1895-10-13 18:00:00 TS 12.1000 -51.4000 50 hurdat_atl main 759 739 O_____________ hurdat_atl AL051895 12.1000 -51.4000 TS 50 0 10 276
1895285N12315 1895 41 NA NA NOT_NAMED 1895-10-13 21:00:00 TS 12.1499 -51.8925 main 739 732 P_____________ AL051895 12.1499 -51.8925 TS 50 0 10 276
1895285N12315 1895 41 NA NA NOT_NAMED 1895-10-14 00:00:00 TS 12.2000 -52.4000 50 hurdat_atl main 732 720 O_____________ hurdat_atl AL051895 12.2000 -52.4000 TS 50 0 10 276
1895285N12315 1895 41 NA NA NOT_NAMED 1895-10-14 03:00:00 TS 12.2499 -52.9425 main 720 720 P_____________ AL051895 12.2499 -52.9425 TS 50 0 11 275
1895285N12315 1895 41 NA NA NOT_NAMED 1895-10-14 06:00:00 TS 12.3000 -53.5000 50 hurdat_atl main 721 717 O_____________ hurdat_atl AL051895 12.3000 -53.5000 TS 50 0 11 275
1895285N12315 1895 41 NA NA NOT_NAMED 1895-10-14 09:00:00 TS 12.3498 -54.0425 main 717 689 P_____________ AL051895 12.3498 -54.0425 TS 50 0 11 275
1895285N12315 1895 41 NA NA NOT_NAMED 1895-10-14 12:00:00 TS 12.4000 -54.6000 50 hurdat_atl main 689 652 O_____________ hurdat_atl AL051895 12.4000 -54.6000 TS 50 0 11 275
1895285N12315 1895 41 NA NA NOT_NAMED 1895-10-14 15:00:00 TS 12.4574 -55.1925 main 653 601 P_____________ AL051895 12.4574 -55.1925 TS 50 0 12 275
1895285N12315 1895 41 NA NA NOT_NAMED 1895-10-14 18:00:00 TS 12.5000 -55.8000 50 hurdat_atl main 601 540 O_____________ hurdat_atl AL051895 12.5000 -55.8000 TS 50 0 12 272
1895285N12315 1895 41 NA NA NOT_NAMED 1895-10-14 21:00:00 TS 12.4998 -56.3926 main 540 480 P_____________ AL051895 12.4998 -56.3926 TS 50 0 12 270
1895285N12315 1895 41 NA NA NOT_NAMED 1895-10-15 00:00:00 TS 12.5000 -57.0000 50 hurdat_atl main 480 421 O_____________ hurdat_atl AL051895 12.5000 -57.0000 TS 50 0 12 272
1895285N12315 1895 41 NA NA NOT_NAMED 1895-10-15 03:00:00 TS 12.5424 -57.6425 main 421 363 P_____________ AL051895 12.5424 -57.6425 TS 50 0 13 275
1895285N12315 1895 41 NA NA NOT_NAMED 1895-10-15 06:00:00 TS 12.6000 -58.3000 50 hurdat_atl main 363 312 O_____________ hurdat_atl AL051895 12.6000 -58.3000 TS 50 0 13 275
1895285N12315 1895 41 NA NA NOT_NAMED 1895-10-15 09:00:00 TS 12.6423 -58.9426 main 312 270 P_____________ AL051895 12.6423 -58.9426 TS 50 0 13 275
1895285N12315 1895 41 NA CS NOT_NAMED 1895-10-15 12:00:00 TS 12.7000 -59.6000 50 hurdat_atl main 270 247 O_____________ hurdat_atl AL051895 12.7000 -59.6000 TS 50 0 13 277
1895285N12315 1895 41 NA CS NOT_NAMED 1895-10-15 15:00:00 TS 12.7924 -60.2925 main 247 239 P_____________ AL051895 12.7924 -60.2925 TS 50 0 14 278
1895285N12315 1895 41 NA CS NOT_NAMED 1895-10-15 18:00:00 TS 12.9000 -61.0000 50 hurdat_atl main 246 246 O_____________ hurdat_atl AL051895 12.9000 -61.0000 TS 50 0 14 279
1895285N12315 1895 41 NA CS NOT_NAMED 1895-10-15 21:00:00 TS 12.9998 -61.6926 main 257 257 P_____________ AL051895 12.9998 -61.6926 TS 52 0 14 278
1895285N12315 1895 41 NA CS NOT_NAMED 1895-10-16 00:00:00 TS 13.1000 -62.4000 55 hurdat_atl main 268 268 O_____________ hurdat_atl AL051895 13.1000 -62.4000 TS 55 0 14 278
1895285N12315 1895 41 NA CS NOT_NAMED 1895-10-16 03:00:00 TS 13.1999 -63.1500 main 280 280 P_____________ AL051895 13.1999 -63.1500 TS 57 0 15 278
1895285N12315 1895 41 NA CS NOT_NAMED 1895-10-16 06:00:00 TS 13.3000 -63.9000 60 hurdat_atl main 303 302 O_____________ hurdat_atl AL051895 13.3000 -63.9000 TS 60 0 14 278
1895285N12315 1895 41 NA CS NOT_NAMED 1895-10-16 09:00:00 TS 13.4073 -64.6150 main 316 316 P_____________ AL051895 13.4073 -64.6150 TS 62 0 14 278
1895285N12315 1895 41 NA CS NOT_NAMED 1895-10-16 12:00:00 TS 13.5000 -65.3000 65 hurdat_atl main 333 324 O_____________ hurdat_atl AL051895 13.5000 -65.3000 HU 65 1 13 276
1895285N12315 1895 41 NA CS NOT_NAMED 1895-10-16 15:00:00 TS 13.5498 -65.9576 main 324 324 P_____________ AL051895 13.5498 -65.9576 HU 67 1 13 275
1895285N12315 1895 41 NA CS NOT_NAMED 1895-10-16 18:00:00 TS 13.6000 -66.6000 70 hurdat_atl main 332 308 O_____________ hurdat_atl AL051895 13.6000 -66.6000 HU 70 1 13 277
1895285N12315 1895 41 NA CS NOT_NAMED 1895-10-16 21:00:00 TS 13.6998 -67.2499 main 308 285 P_____________ AL051895 13.6998 -67.2499 HU 72 1 13 279
1895285N12315 1895 41 NA CS NOT_NAMED 1895-10-17 00:00:00 TS 13.8000 -67.9000 75 hurdat_atl main 285 250 O_____________ hurdat_atl AL051895 13.8000 -67.9000 HU 75 1 13 277
1895285N12315 1895 41 NA CS NOT_NAMED 1895-10-17 03:00:00 TS 13.8574 -68.5576 main 245 215 P_____________ AL051895 13.8574 -68.5576 HU 77 1 13 275
1895285N12315 1895 41 NA CS NOT_NAMED 1895-10-17 06:00:00 TS 13.9000 -69.2000 80 hurdat_atl main 215 201 O_____________ hurdat_atl AL051895 13.9000 -69.2000 HU 80 1 12 274
1895285N12315 1895 41 NA CS NOT_NAMED 1895-10-17 09:00:00 TS 13.9498 -69.8150 main 201 201 P_____________ AL051895 13.9498 -69.8150 HU 82 1 12 275
1895285N12315 1895 41 NA CS NOT_NAMED 1895-10-17 12:00:00 TS 14.0000 -70.4000 85 hurdat_atl main 213 190 O_____________ hurdat_atl AL051895 14.0000 -70.4000 HU 85 2 11 275
1895285N12315 1895 41 NA CS NOT_NAMED 1895-10-17 15:00:00 TS 14.0421 -70.9276 main 190 187 P_____________ AL051895 14.0421 -70.9276 HU 87 2 11 275
1895285N12315 1895 41 NA CS NOT_NAMED 1895-10-17 18:00:00 TS 14.1000 -71.5000 90 hurdat_atl main 190 190 O_____________ hurdat_atl AL051895 14.1000 -71.5000 HU 90 2 13 277
1895285N12315 1895 41 NA CS NOT_NAMED 1895-10-17 21:00:00 TS 14.1850 -72.2201 main 208 208 P_____________ AL051895 14.1850 -72.2201 HU 90 2 15 278
1895285N12315 1895 41 NA CS NOT_NAMED 1895-10-18 00:00:00 TS 14.3000 -73.0000 90 hurdat_atl main 248 248 O_____________ hurdat_atl AL051895 14.3000 -73.0000 HU 90 2 15 280
1895285N12315 1895 41 NA CS NOT_NAMED 1895-10-18 03:00:00 TS 14.4348 -73.7501 main 301 301 P_____________ AL051895 14.4348 -73.7501 HU 90 2 15 282
1895285N12315 1895 41 NA CS NOT_NAMED 1895-10-18 06:00:00 TS 14.6000 -74.5000 90 hurdat_atl main 366 362 O_____________ hurdat_atl AL051895 14.6000 -74.5000 HU 90 2 15 284
1895285N12315 1895 41 NA CS NOT_NAMED 1895-10-18 09:00:00 TS 14.7998 -75.2500 main 362 325 P_____________ AL051895 14.7998 -75.2500 HU 90 2 15 285
1895285N12315 1895 41 NA CS NOT_NAMED 1895-10-18 12:00:00 TS 15.0000 -76.0000 90 hurdat_atl main 325 295 O_____________ hurdat_atl AL051895 15.0000 -76.0000 HU 90 2 15 284
1895285N12315 1895 41 NA CS NOT_NAMED 1895-10-18 15:00:00 TS 15.1493 -76.7129 main 295 268 P_____________ AL051895 15.1493 -76.7129 HU 90 2 15 282
1895285N12315 1895 41 NA CS NOT_NAMED 1895-10-18 18:00:00 TS 15.3000 -77.5000 90 hurdat_atl main 270 265 O_____________ hurdat_atl AL051895 15.3000 -77.5000 HU 90 2 18 281
1895285N12315 1895 41 NA CS NOT_NAMED 1895-10-18 21:00:00 TS 15.4930 -78.4999 main 281 281 P_____________ AL051895 15.4930 -78.4999 HU 90 2 20 282
1895285N12315 1895 41 NA CS NOT_NAMED 1895-10-19 00:00:00 TS 15.7000 -79.5000 90 hurdat_atl main 303 303 O_____________ hurdat_atl AL051895 15.7000 -79.5000 HU 90 2 18 283
1895285N12315 1895 41 NA CS NOT_NAMED 1895-10-19 03:00:00 TS 15.8999 -80.3625 main 306 256 P_____________ AL051895 15.8999 -80.3625 HU 90 2 15 286
1895285N12315 1895 41 NA CS NOT_NAMED 1895-10-19 06:00:00 TS 16.1000 -81.0000 90 hurdat_atl main 256 232 O_____________ hurdat_atl AL051895 16.1000 -81.0000 HU 90 2 12 298
1895285N12315 1895 41 NA CS NOT_NAMED 1895-10-19 09:00:00 TS 16.4568 -81.4747 main 239 239 P_____________ AL051895 16.2846 -81.3402 HU 90 2 10 315
1895285N12315 1895 41 NA CS NOT_NAMED 1895-10-19 12:00:00 TS 16.8000 -81.7200 90 hurdat_atl main 247 247 O____________O hurdat_atl AL051895 16.5000 -81.5000 HU 90 2 18.0000 -82.6000 HU 75 9 329
1895285N12315 1895 41 NA CS NOT_NAMED 1895-10-19 15:00:00 TS 17.1941 -81.9391 main 266 259 P____________P AL051895 16.7850 -81.6725 HU 90 2 18.3125 -82.6524 HU 75 9 336
1895285N12315 1895 41 NA CS NOT_NAMED 1895-10-19 18:00:00 TS 17.6000 -82.1000 90 hurdat_atl main 292 292 O____________O hurdat_atl AL051895 17.1000 -81.8000 HU 90 2 18.6000 -82.7000 HU 75 7 341
1895285N12315 1895 41 NA CS NOT_NAMED 1895-10-19 21:00:00 TS 17.8833 -82.1959 main 317 317 P____________P AL051895 17.4000 -81.9225 HU 90 2 18.8500 -82.7426 HU 77 6 344
1895285N12315 1895 41 NA CS NOT_NAMED 1895-10-20 00:00:00 TS 18.1667 -82.2667 90 hurdat_atl main 342 339 O____________O hurdat_atl AL051895 17.7000 -82.0000 HU 90 2 19.1000 -82.8000 HU 80 6 349
1895285N12315 1895 41 NA CS NOT_NAMED 1895-10-20 03:00:00 TS 18.4667 -82.3125 main 328 295 P____________P AL051895 18.0000 -82.0151 HU 90 2 19.4000 -82.9074 HU 80 6 353
1895285N12315 1895 41 NA CS NOT_NAMED 1895-10-20 06:00:00 TS 18.7667 -82.3333 90 hurdat_atl main 295 273 O____________O hurdat_atl AL051895 18.3000 -82.0000 HU 90 2 19.7000 -83.0000 HU 80 6 359
1895285N12315 1895 41 NA CS NOT_NAMED 1895-10-20 09:00:00 TS 19.0600 -82.3384 main 262 240 P____________P AL051895 18.6000 -82.0000 HU 90 2 19.9800 -83.0151 HU 80 6 0
1895285N12315 1895 41 NA CS NOT_NAMED 1895-10-20 12:00:00 TS 19.3333 -82.3333 90 hurdat_atl main 240 207 O____________O hurdat_atl AL051895 18.9000 -82.0000 HU 90 2 20.2000 -83.0000 HU 80 5 1
1895285N12315 1895 41 NA CS NOT_NAMED 1895-10-20 15:00:00 TS 19.5742 -82.3333 main 207 186 P____________P AL051895 19.2000 -82.0000 HU 90 2 20.3225 -83.0000 HU 80 5 0
1895285N12315 1895 41 NA CS NOT_NAMED 1895-10-20 18:00:00 TS 19.8000 -82.3333 90 hurdat_atl main 186 164 O____________O hurdat_atl AL051895 19.5000 -82.0000 HU 90 2 20.4000 -83.0000 HU 80 5 357
1895285N12315 1895 41 NA CS NOT_NAMED 1895-10-20 21:00:00 TS 20.0333 -82.3482 main 164 133 P____________P AL051895 19.8000 -82.0224 HU 90 2 20.5000 -83.0000 HU 82 5 0
1895285N12315 1895 41 NA CS NOT_NAMED 1895-10-21 00:00:00 TS 20.2667 -82.3333 90 hurdat_atl main 133 113 O____________O hurdat_atl AL051895 20.1000 -82.0000 HU 90 2 20.6000 -83.0000 HU 85 5 11
1895285N12315 1895 41 NA CS NOT_NAMED 1895-10-21 03:00:00 TS 20.5000 -82.2533 main 113 100 P____________P AL051895 20.4000 -81.8800 HU 90 2 20.7000 -83.0000 HU 85 5 22
1895285N12315 1895 41 NA CS NOT_NAMED 1895-10-21 06:00:00 TS 20.7333 -82.1333 90 hurdat_atl main 106 88 O____________O hurdat_atl AL051895 20.7000 -81.7000 HU 90 2 20.8000 -83.0000 HU 85 5 25
1895285N12315 1895 41 NA CS NOT_NAMED 1895-10-21 09:00:00 TS 20.9241 -82.0396 main 93 76 P____________P AL051895 20.9774 -81.5222 HU 90 2 20.8173 -83.0742 HU 85 5 28
1895285N12315 1895 41 NA CS NOT_NAMED 1895-10-21 12:00:00 TS 21.2000 -81.8667 90 hurdat_atl main 76 59 O____________O hurdat_atl AL051895 21.3000 -81.3000 HU 90 2 21.0000 -83.0000 HU 85 9 32
1895285N12315 1895 41 NA CS NOT_NAMED 1895-10-21 15:00:00 TS 21.6618 -81.5401 main 45 0 P____________P AL051895 21.7050 -81.0223 HU 87 2 21.5753 -82.5758 HU 85 12 33
1895285N12315 1895 41 NA NA NOT_NAMED 1895-10-21 18:00:00 TS 22.2333 -81.1333 85 hurdat_atl main 0 0 O____________O hurdat_atl AL051895 22.2000 -80.7000 HU 85 2 22.3000 -82.0000 HU 85 14 33
1895285N12315 1895 41 NA NA NOT_NAMED 1895-10-21 21:00:00 TS 22.8107 -80.7430 main 0 0 P____________P AL051895 22.7624 -80.3647 HU 85 2 22.9073 -81.4995 HU 85 14 32
1895285N12315 1895 41 NA NA NOT_NAMED 1895-10-22 00:00:00 TS 23.4333 -80.3333 85 hurdat_atl main 49 49 O____________O hurdat_atl AL051895 23.4000 -80.0000 HU 85 2 23.5000 -81.0000 HU 85 991 15 31
1895285N12315 1895 41 NA NA NOT_NAMED 1895-10-22 03:00:00 TS 24.0874 -79.9047 main 122 97 P____________P AL051895 24.0850 -79.6073 HU 87 2 24.0923 -80.4994 HU 85 16 31
1895285N12315 1895 41 NA NA NOT_NAMED 1895-10-22 06:00:00 TS 24.7667 -79.4667 90 hurdat_atl main 96 92 O____________O hurdat_atl AL051895 24.8000 -79.2000 HU 90 2 24.7000 -80.0000 HU 85 16 29
1895285N12315 1895 41 NA NA NOT_NAMED 1895-10-22 09:00:00 TS 25.4847 -79.0456 main 100 100 P____________P AL051895 25.5373 -78.8073 HU 90 2 25.3796 -79.5223 HU 85 16 30
1895285N12315 1895 41 NA NA NOT_NAMED 1895-10-22 12:00:00 TS 26.1333 -78.6000 90 hurdat_atl main 122 122 O____________O hurdat_atl AL051895 26.2000 -78.4000 HU 90 2 26.0000 -79.0000 HU 85 14 37
1895285N12315 1895 41 NA NA NOT_NAMED 1895-10-22 15:00:00 TS 26.6166 -78.0978 main 167 167 P____________P AL051895 26.7023 -77.9645 HU 90 2 26.4451 -78.3645 HU 85 13 47
1895285N12315 1895 41 NA NA NOT_NAMED 1895-10-22 18:00:00 TS 27.0000 -77.5667 90 hurdat_atl main 215 215 O____________O hurdat_atl AL051895 27.1000 -77.5000 HU 90 2 26.8000 -77.7000 HU 85 12 51
1895285N12315 1895 41 NA NA NOT_NAMED 1895-10-22 21:00:00 TS 27.3596 -77.0526 main 272 272 P____________P AL051895 27.4646 -77.0294 HU 90 2 27.1495 -77.0992 HU 85 12 54
1895285N12315 1895 41 NA NA NOT_NAMED 1895-10-23 00:00:00 TS 27.7000 -76.5000 90 hurdat_atl main 326 326 O____________O hurdat_atl AL051895 27.8000 -76.5000 HU 90 2 27.5000 -76.5000 HU 85 13 56
1895285N12315 1895 41 NA NA NOT_NAMED 1895-10-23 03:00:00 TS 28.0663 -75.8846 main 394 394 P____________P AL051895 28.1495 -75.9020 HU 90 2 27.8999 -75.8499 HU 85 14 57
1895285N12315 1895 41 NA NA NOT_NAMED 1895-10-23 06:00:00 TS 28.4333 -75.2000 90 hurdat_atl main 461 461 O____________O hurdat_atl AL051895 28.5000 -75.2000 HU 90 2 28.3000 -75.2000 HU 85 14 60
1895285N12315 1895 41 NA NA NOT_NAMED 1895-10-23 09:00:00 TS 28.7800 -74.4874 main 539 539 P____________P AL051895 28.8498 -74.3871 HU 90 2 28.6404 -74.6879 HU 85 15 62
1895285N12315 1895 41 NA NA NOT_NAMED 1895-10-23 12:00:00 TS 29.1333 -73.6667 90 hurdat_atl main 616 616 O____________O hurdat_atl AL051895 29.2000 -73.5000 HU 90 2 29.0000 -74.0000 HU 85 18 65
1895285N12315 1895 41 NA NA NOT_NAMED 1895-10-23 15:00:00 TS 29.5220 -72.6727 main 681 676 P____________P AL051895 29.5650 -72.5851 HU 90 2 29.4361 -72.8479 HU 85 19 67
1895285N12315 1895 41 NA NA NOT_NAMED 1895-10-23 18:00:00 TS 29.9000 -71.6333 90 hurdat_atl main 705 703 O____________O hurdat_atl AL051895 29.9000 -71.7000 HU 90 2 29.9000 -71.5000 HU 85 19 68
1895285N12315 1895 41 NA NA NOT_NAMED 1895-10-23 21:00:00 TS 30.2287 -70.6786 main 739 738 P____________P AL051895 30.1644 -70.9117 HU 90 2 30.3573 -70.2122 HU 85 17 68
1895285N12315 1895 41 NA NA NOT_NAMED 1895-10-24 00:00:00 TS 30.5333 -69.8000 90 hurdat_atl main 780 780 O____________O hurdat_atl AL051895 30.4000 -70.2000 HU 90 2 30.8000 -69.0000 HU 85 15 67
1895285N12315 1895 41 NA NA NOT_NAMED 1895-10-24 03:00:00 TS 30.8269 -69.0396 main 819 812 P____________P AL051895 30.6412 -69.5790 HU 90 2 31.1983 -67.9607 HU 85 14 66
1895285N12315 1895 41 NA NA NOT_NAMED 1895-10-24 06:00:00 TS 31.1333 -68.2667 90 hurdat_atl main 847 847 O____________O hurdat_atl AL051895 30.9000 -68.9000 HU 90 2 31.6000 -67.0000 HU 85 15 66
1895285N12315 1895 41 NA NA NOT_NAMED 1895-10-24 09:00:00 TS 31.4488 -67.3977 main 894 894 P____________P AL051895 31.1451 -68.0892 HU 90 2 32.0564 -66.0146 HU 80 18 67
1895285N12315 1895 41 NA NA NOT_NAMED 1895-10-24 12:00:00 TS 31.8333 -66.3333 90 hurdat_atl main 957 952 O____________O hurdat_atl AL051895 31.5000 -67.0000 HU 90 2 32.5000 -65.0000 HU 75 22 67
1895285N12315 1895 41 NA NA NOT_NAMED 1895-10-24 15:00:00 TS 32.3108 -65.0255 main 1040 1040 P____________P AL051895 32.0303 -65.5775 HU 90 2 32.8717 -63.9215 HU 70 26 67
1895285N12315 1895 41 NA NA NOT_NAMED 1895-10-24 18:00:00 TS 32.8667 -63.4667 90 hurdat_atl main 1134 1134 O____________O hurdat_atl AL051895 32.7000 -63.8000 HU 90 2 33.2000 -62.8000 HU 65 30 67
1895285N12315 1895 41 NA NA NOT_NAMED 1895-10-24 21:00:00 TS 33.4917 -61.7664 main 1153 1142 P____________P AL051895 33.4865 -61.7584 HU 90 2 33.5022 -61.7823 HU 62 33 68
1895285N12315 1895 41 NA NA NOT_NAMED 1895-10-25 00:00:00 TS 34.0667 -59.8333 90 hurdat_atl main 1148 1148 O____________O hurdat_atl AL051895 34.2000 -59.5000 HU 90 2 33.8000 -60.5000 TS 60 35 74
1895285N12315 1895 41 NA NA NOT_NAMED 1895-10-25 03:00:00 TS 34.4702 -57.6541 main 1195 1195 P____________P AL051895 34.6563 -57.1309 HU 90 2 34.0981 -58.7006 TS 60 37 80
1895285N12315 1895 41 NA NA NOT_NAMED 1895-10-25 06:00:00 TS 34.7333 -55.4333 90 hurdat_atl main 1264 1260 O____________O hurdat_atl AL051895 34.9000 -54.9000 HU 90 2 34.4000 -56.5000 TS 60 36 82
1895285N12315 1895 41 NA NA NOT_NAMED 1895-10-25 09:00:00 TS 34.9356 -53.3548 main 1301 1290 P____________P AL051895 35.0197 -53.0710 HU 87 2 34.7674 -53.9225 TS 57 32 85
1895285N12315 1895 41 NA NA NOT_NAMED 1895-10-25 12:00:00 TS 35.0000 -51.5000 85 hurdat_atl main 1298 1298 O____________O hurdat_atl AL051895 35.0000 -51.5000 HU 85 2 35.0000 -51.5000 TS 55 28 91
1895285N12315 1895 41 NA NA NOT_NAMED 1895-10-25 15:00:00 TS 34.8985 -49.9858 main 1328 1328 P____________P AL051895 34.8760 -50.0341 HU 80 1 34.9436 -49.8890 TS 52 24 96
1895285N12315 1895 41 NA NA NOT_NAMED 1895-10-25 18:00:00 TS 34.7333 -48.6000 75 hurdat_atl main 1378 1378 O____________O hurdat_atl AL051895 34.7000 -48.6000 HU 75 1 34.8000 -48.6000 TS 50 24 97
1895285N12315 1895 41 NA NA NOT_NAMED 1895-10-25 21:00:00 TS 34.6077 -47.0677 main 1429 1429 P____________P AL051895 34.5410 -47.0299 HU 70 1 34.7411 -47.1431 TS 47 26 95
1895285N12315 1895 41 NA NA NOT_NAMED 1895-10-26 00:00:00 TS 34.5000 -45.5000 65 hurdat_atl main 1492 1492 O____________O hurdat_atl AL051895 34.4000 -45.4000 HU 65 1 34.7000 -45.7000 TS 45 26 94
1895285N12315 1895 41 NA NA NOT_NAMED 1895-10-26 03:00:00 TS 34.4097 -43.9389 main 1565 1565 P____________P AL051895 34.2906 -43.7583 HU 60 0 34.6479 -44.3002 TS 45 25 93
1895285N12315 1895 41 NA NA NOT_NAMED 1895-10-26 06:00:00 ET 34.3600 -42.4200 55 hurdat_atl main 1631 1631 O____________O hurdat_atl AL051895 34.2000 -42.1000 EX 55 -4 34.6000 -42.9000 EX 45 25 92
1895285N12315 1895 41 NA NA NOT_NAMED 1895-10-26 09:00:00 ET 34.3434 -40.9303 main 1713 1713 P____________P AL051895 34.1067 -40.4467 EX 50 -4 34.5800 -41.4140 EX 45 23 91
1895285N12315 1895 41 NA NA NOT_NAMED 1895-10-26 12:00:00 ET 34.3333 -39.6000 45 hurdat_atl main 1780 1780 O____________O hurdat_atl AL051895 34.0000 -38.8000 EX 45 -4 34.5000 -40.0000 EX 45 18 92
1895285N12315 1895 41 NA NA NOT_NAMED 1895-10-26 15:00:00 ET 34.2852 -38.7974 main 1824 1824 _____________P AL051895 EX -4 34.2852 -38.7974 EX 45 16 102
1895285N12315 1895 41 NA NA NOT_NAMED 1895-10-26 18:00:00 ET 34.0000 -37.7000 main 1912 1912 _____________O 34.0000 -37.7000 EX 45 19 108
1895285N12315 1895 41 NA NA NOT_NAMED 1895-10-26 21:00:00 ET 33.7063 -36.5931 main 1974 1876 _____________P 33.7063 -36.5931 EX 45 19 108
1895285N12315 1895 41 NA NA NOT_NAMED 1895-10-27 00:00:00 ET 33.4000 -35.5000 main 1867 1769 _____________O 33.4000 -35.5000 EX 45 19 109
1895285N12315 1895 41 NA NA NOT_NAMED 1895-10-27 03:00:00 ET 33.0913 -34.4080 main 1760 1662 _____________P 33.0913 -34.4080 EX 45 19 108
1895285N12315 1895 41 NA NA NOT_NAMED 1895-10-27 06:00:00 ET 32.8000 -33.3000 main 1653 1554 _____________O 32.8000 -33.3000 EX 45 19 107
1895285N12315 1895 41 NA NA NOT_NAMED 1895-10-27 09:00:00 ET 32.5101 -32.2098 main 1545 1440 _____________P 32.5101 -32.2098 EX 45 20 104
1895285N12315 1895 41 NA NA NOT_NAMED 1895-10-27 12:00:00 ET 32.3000 -31.0000 main 1431 1301 _____________O 32.3000 -31.0000 EX 45 23 97
1895285N12315 1895 41 NA NA NOT_NAMED 1895-10-27 15:00:00 ET 32.2274 -29.5541 main 1301 1167 _____________P 32.2274 -29.5541 EX 45 25 92
1895285N12315 1895 41 NA NA NOT_NAMED 1895-10-27 18:00:00 ET 32.2000 -28.0000 main 1158 1031 _____________O 32.2000 -28.0000 EX 45 26 94
1895285N12315 1895 41 NA NA NOT_NAMED 1895-10-27 21:00:00 ET 32.0533 -26.4974 main 1022 897 _____________P 32.0533 -26.4974 EX 45 25 94
1895285N12315 1895 41 NA NA NOT_NAMED 1895-10-28 00:00:00 ET 32.0000 -25.0000 main 888 777 _____________O 32.0000 -25.0000 EX 45 25 88
1895285N12315 1895 41 NA NA NOT_NAMED 1895-10-28 03:00:00 ET 32.1583 -23.4998 main 775 690 _____________P 32.1583 -23.4998 EX 45 26 79
1895285N12315 1895 41 NA NA NOT_NAMED 1895-10-28 06:00:00 ET 32.5000 -22.0000 main 683 637 _____________O 32.5000 -22.0000 EX 45 27 71
1895285N12315 1895 41 NA NA NOT_NAMED 1895-10-28 09:00:00 ET 33.0519 -20.4675 main 641 612 _____________P 33.0519 -20.4675 EX 45 27 68
1895285N12315 1895 41 NA NA NOT_NAMED 1895-10-28 12:00:00 ET 33.5000 -19.0000 main 610 573 _____________O 33.5000 -19.0000 EX 45 24 78
1895285N12315 1895 41 NA NA NOT_NAMED 1895-10-28 15:00:00 ET 33.5339 -17.6947 main 571 535 _____________P 33.5339 -17.6947 EX 40 21 95
1895285N12315 1895 41 NA NA NOT_NAMED 1895-10-28 18:00:00 ET 33.3000 -16.5000 main 535 _____________O 33.3000 -16.5000 EX 35 20 103

About IBTrACS Database

This database is a web-friendly format of International Best Track Archive for Climate Stewardship (IBTrACS), a global best track data archive curated by NOAA dating back to 1842.

Updated: 2021-11-26